Terminal Aerodrome Forecast
Issued by NWS Blacksburg, VA

Current Version | Previous Version | Graphics & Text | Print | Product List | Glossary On
Versions: 1 2 3 4 5 6 7 8 9 10 11 12 13 14 15 16 17 18 19 20 21 22 23 24 25 26 27
000
FTUS41 KRNK 230533
TAFBLF
TAF
KBLF 230533Z 2306/2406 25006KT 1/4SM FG BKN001
      TEMPO 2306/2310 3SM BR SCT003 BKN070
     FM231200 29004KT 3SM BR BKN002
     FM231400 33005KT P6SM BKN025
     FM231800 34006KT P6SM VCTS BKN050CB
     FM240100 31004KT P6SM SCT120=

USA.gov is the U.S. government's official web portal to all federal, state and local government web resources and services.